Abtei Piz La Ila
04.09.2026, 09:40
Daten in Echtzeit















40 Messstationen
| Favoriten | Station | Höhe | Datum - Uhrzeit |
t (°C) |
rH (%) |
dd |
ff (km/h) |
bb (km/h) |
hs (cm) |
|---|---|---|---|---|---|---|---|---|---|
| Abtei Piz La Ila | 1997 m | 04.09.2026, 09:40 | 13.4 | 53 | S(182°) | 0.0 | 0.0 | 8 | |
| Abtei Piz Pisciadù | 2981 m | 04.09.2026, 09:40 | 8.6 | 48 | W(259°) | 24.5 | 29.5 | - | |
| Campill Kreuzkofeljoch | 2295 m | 04.09.2026, 09:40 | 13.7 | 53 | W(262°) | 6.5 | 16.6 | 10 | |
| Deutschnofen Obereggen | 2123 m | 04.09.2026, 09:40 | 13.5 | 50 | SO(119°) | 4.3 | 7.9 | 11 | |
| Gantkofel | 1860 m | 04.09.2026, 09:45 | 16.2 | 53 | S(170.8°) | 5.4 | 10.1 | 4 | |
| Graun Elferspitze | 2922 m | 04.09.2026, 09:40 | 7.8 | 56 | SW(235°) | 12.2 | 20.5 | - | |
| Graun Schöneben | 2037 m | 04.09.2026, 09:40 | 14.8 | 47 | O(93°) | 0.0 | 0.0 | 2 | |
| Gsies Pfinnalm | 2152 m | 04.09.2026, 09:40 | 14.3 | 56 | O(103°) | 5.4 | 9.4 | 12 | |
| Gsies Regelspitze | 2741 m | 04.09.2026, 08:30 | 8.5 | 61 | W(289°) | 11.5 | 15.1 | - | |
| Jaufenkamm | 2145 m | 04.09.2026, 09:40 | 12.8 | 56 | S(195°) | 21.2 | 24.8 | - | |
| Ladurns | 1959 m | 04.09.2026, 09:40 | 15.1 | 50 | S(198.9°) | 0.0 | 3.2 | -1 | |
| Melag Pratznerberg | 2420 m | 04.09.2026, 09:40 | 13.1 | 46 | S(163°) | 3.6 | 8.3 | 5 | |
| Pens Tramintal | 2127 m | 04.09.2026, 09:40 | 14.2 | 48 | SW(245°) | 5.4 | 10.1 | 0 | |
| Pfelders Grünboden | 2011 m | 04.09.2026, 09:40 | 12.9 | 62 | O(98°) | 1.4 | 2.2 | -3 | |
| Pfelders Rauhjoch | 2911 m | 04.09.2026, 09:40 | 9.8 | 59 | O(109°) | 0.7 | 4.3 | - | |
| Pfunders Dannelspitz | 2804 m | 04.09.2026, 09:40 | 10.8 | 56 | N(0°) | 0.7 | 12.2 | - | |
| Pfunders Stutzenalm | 2045 m | 04.09.2026, 09:40 | 14.9 | 52 | SW(212°) | 3.2 | 6.1 | 6 | |
| Plose | 2477 m | 04.09.2026, 09:40 | 9.9 | 60 | SW(238.7°) | 13.0 | 21.6 | - | |
| Prags Rossalm | 2345 m | 04.09.2026, 09:40 | 12.4 | 50 | SW(240°) | 17.3 | 25.2 | 0 | |
| Prettau Lengspitze | 3104 m | 04.09.2026, 09:40 | 6.0 | 67 | W(264°) | 7.2 | 10.4 | - | |
| Prettau Merbalm | 2002 m | 04.09.2026, 09:40 | 10.9 | 71 | SO(137°) | 0.0 | 0.0 | 3 | |
| Proveis Samerberg | 2144 m | 04.09.2026, 09:40 | 13.8 | 70 | SO(139°) | 5.4 | 9.7 | -1 | |
| Ratschings Wasserfaller Alm | 1904 m | 04.09.2026, 09:40 | 15.4 | 51 | SW(213°) | 6.5 | 12.6 | -2 | |
| Rein i.T. Tristenboden | 2445 m | 04.09.2026, 09:40 | 11.2 | 57 | NO(34°) | 1.8 | 4.7 | 1 | |
| Rittner Horn | 2261 m | 04.09.2026, 09:40 | 12.5 | 53 | W(252°) | 10.4 | 15.8 | - | |
| Schleis Kloangruebes | 2459 m | 04.09.2026, 09:40 | 12.3 | 53 | SO(128°) | 2.9 | 7.2 | 2 | |
| Schnals Finail | 1950 m | 04.09.2026, 09:40 | 15.6 | 54 | - | - | - | 34 | |
| Schnals Grawand | 3192 m | 04.09.2026, 09:40 | 8.1 | 28 | NO(43°) | 17.3 | 25.2 | - | |
| Schnals Teufelsegg | 3033 m | 04.09.2026, 09:40 | 9.3 | 24 | - | - | - | 8 | |
| Seiser Alm Zallinger | 2050 m | 04.09.2026, 09:45 | 15.5 | 53 | NO(56.5°) | 5.0 | 9.0 | 10 | |
| Sexten Rotwandwiesen | 1906 m | 04.09.2026, 09:40 | 14.8 | 54 | NO(58.3°) | 1.4 | 5.8 | 3 | |
| Signalgipfel Wilder Freiger | 3389 m | 04.09.2026, 09:40 | 6.8 | 14 | S(197°) | 19.1 | 44.3 | - | |
| Sulden Madritsch | 2825 m | 04.09.2026, 09:40 | 10.0 | 48 | S(161°) | 2.5 | 5.4 | 1 | |
| Sulden Schöntaufspitze | 3326 m | 04.09.2026, 09:40 | 4.7 | 57 | NW(336°) | 27.4 | 32.8 | - | |
| Timmelsalm | 2231 m | 04.09.2026, 09:40 | 13.5 | 52 | SW(226°) | 3.6 | 6.5 | 2 | |
| Toblach Hochebenkofel | 2901 m | 04.09.2026, 09:00 | 7.4 | 70 | W(267.7°) | 5.4 | 23.8 | - | |
| Trafoi Zaufenkofel | 2485 m | 04.09.2026, 09:40 | 14.5 | 44 | SO(135°) | 5.4 | 12.2 | - | |
| Ulten Rossbänke | 2299 m | 04.09.2026, 09:30 | 14.7 | 41 | N(347°) | 0.4 | 3.6 | -4 | |
| Ulten Weißbrunnspitz | 3252 m | 04.09.2026, 09:40 | 6.2 | 42 | NW(308°) | 18.7 | 25.6 | - | |
| Weissenbach Fadner Alm | 2154 m | 04.09.2026, 09:40 | 14.5 | 52 | NO(48°) | 2.5 | 4.7 | 3 |
Legende mit den gemessenen Werten:
t:Lufttemperatur (°C)
rH:Relative Luftfeuchtigkeit (%)
dd:Windrichtung
ff:Mittlere Windgeschwindigkeit (km/h)
bb:Windböe (km/h)
hs:Schneehöhe (cm)
sd:Sonnenscheindauer (h)
EG:Globalstrahlung (W/m²)